Portada
METAR-TAF:

METAR-TAF

Aeroports :

Calgary, Alberta, Canadà

latitud: 51-07N, longitud: 114-01W, altitud: 1077 m

Observació

L'informe es va fer fa 31 minuts, a les 16:00 UTC
Vent calma
Temperatura 4°C
Humitat 56%
Pressió 1013 hPa
Visibilitat: 64.4 km
Cel clar

METAR: CYYC 231600Z 00000KT 40SM SKC 04/M04 A2992 RMK SLP167

Hora: 10:31 (16:31 UTC)

Pronòstic

L'informe es va fer fa 1 hora i 53 minuts, a les 14:38 UTC
Pronòstic vàlid del 23 a les 15 UTC al 24 a les 12 UTC
Vent 3 kt amb direcció variable
Visibilitat: 10 km
Cel clar
Evolucionant progressivament
l' 23 a les 16 UTC al 23 a les 18 UTC
Vent 7 kt del Sud-Oest

TAF: CYYC 231438Z 2315/2412 VRB03KT P6SM SKC BECMG 2316/2318 22007KT RMK NXT FCST BY 231800Z

Observacions i pronòstics meteorològics de més de 4000 aeroports (METAR i TAF).

Les estacions disponibles són els punts grocs i vermells al mapa.

Posi el ratolí al punt desitjat per veure el nom de l'estació.

Feu clic per veure les observacions i els pronòstics meteorològics.

Per canviar el mapa: feu clic els botons verds amb una creu de color negre per apropar; al botó verd amb un guió per allunyar la imatge; o en les fletxes verdes per a mapes adjacents.


METAR-TAF: